Time;durP1;ratioP1;P1;durP2;ratioP2;P2;SDS_P1;SDS_P2;PMS_P1;PMS_P2;Temp;Humidity;BMP_temperature;BMP_pressure;BME280_temperature;BME280_humidity;BME280_pressure;Samples;Min_cycle;Max_cycle;Signal;HPM_P1;HPM_P2
2022/09/15 00:00:53;;;;;;;23.02;14.63;;;;;;;13.00;78.13;98450.00;4849318;29;20045;-77
2022/09/15 00:03:21;;;;;;;25.08;14.70;;;;;;;12.95;78.57;98447.56;4850062;29;20136;-75
2022/09/15 00:05:47;;;;;;;22.73;14.73;;;;;;;12.97;78.46;98450.97;4851257;29;20057;-76
2022/09/15 00:08:14;;;;;;;24.23;14.65;;;;;;;13.03;78.25;98452.50;4850888;29;20052;-74
2022/09/15 00:10:51;;;;;;;22.27;14.60;;;;;;;13.03;78.53;98445.50;4869199;29;20060;-78
2022/09/15 00:13:18;;;;;;;24.40;15.38;;;;;;;13.09;78.95;98449.63;4858148;29;20049;-77
2022/09/15 00:15:45;;;;;;;22.63;14.68;;;;;;;13.01;78.83;98447.34;4851044;29;20105;-76
2022/09/15 00:18:11;;;;;;;24.98;16.00;;;;;;;13.05;79.39;98442.84;4849184;29;20044;-75
2022/09/15 00:20:42;;;;;;;22.10;13.60;;;;;;;13.09;78.94;98444.41;4848568;29;20201;-76
2022/09/15 00:23:10;;;;;;;23.33;14.67;;;;;;;13.02;79.14;98433.34;4849107;29;20063;-73
2022/09/15 00:25:43;;;;;;;26.73;15.10;;;;;;;13.09;78.51;98447.03;4850915;29;20049;-78
2022/09/15 00:28:09;;;;;;;23.00;14.18;;;;;;;13.04;78.79;98448.97;4863019;29;20400;-76
2022/09/15 00:30:43;;;;;;;22.00;13.82;;;;;;;12.98;78.71;98443.97;4849517;29;20052;-76
2022/09/15 00:33:10;;;;;;;22.88;13.63;;;;;;;13.05;78.94;98448.06;4851500;29;20088;-75
2022/09/15 00:35:38;;;;;;;24.63;14.05;;;;;;;13.05;78.70;98437.63;4849078;29;20066;-75
2022/09/15 00:38:04;;;;;;;22.73;13.98;;;;;;;13.03;78.62;98432.44;4850076;29;20054;-77
2022/09/15 00:40:30;;;;;;;22.58;14.15;;;;;;;13.03;79.06;98435.03;4836890;29;20557;-76
2022/09/15 00:42:57;;;;;;;23.83;14.70;;;;;;;13.01;79.03;98441.25;4850834;29;20049;-76
2022/09/15 00:45:23;;;;;;;21.67;12.77;;;;;;;13.07;79.58;98438.41;4862921;29;20045;-74
2022/09/15 00:47:50;;;;;;;22.98;13.65;;;;;;;13.08;78.97;98433.09;4850375;29;20053;-77
2022/09/15 00:50:19;;;;;;;24.58;13.82;;;;;;;13.02;78.93;98425.50;4857236;29;20532;-77
2022/09/15 00:52:50;;;;;;;26.00;14.80;;;;;;;13.00;79.06;98431.72;4854406;29;20084;-78
2022/09/15 00:55:46;;;;;;;27.23;13.95;;;;;;;13.08;79.68;98429.66;4868530;29;20045;-75
2022/09/15 00:58:24;;;;;;;22.35;13.18;;;;;;;13.21;79.57;98424.78;4851721;29;20069;-76
2022/09/15 01:00:59;;;;;;;24.25;13.35;;;;;;;13.20;79.02;98423.06;4852172;29;20045;-78
2022/09/15 01:03:28;;;;;;;20.27;12.15;;;;;;;13.20;79.31;98426.53;4854801;29;20075;-75
2022/09/15 01:06:00;;;;;;;21.38;11.77;;;;;;;13.22;79.48;98411.63;4854883;29;20734;-78
2022/09/15 01:08:40;;;;;;;17.13;12.10;;;;;;;13.38;79.50;98431.88;4853347;29;20062;-77
2022/09/15 01:11:06;;;;;;;17.92;11.75;;;;;;;13.47;79.38;98422.84;4866357;29;20096;-76
2022/09/15 01:13:34;;;;;;;19.33;11.85;;;;;;;13.51;79.40;98425.28;4855768;29;20042;-77
2022/09/15 01:16:30;;;;;;;23.48;12.23;;;;;;;13.59;79.17;98427.56;4852954;29;20144;-77
2022/09/15 01:19:08;;;;;;;18.02;11.15;;;;;;;13.63;79.09;98431.75;4840389;29;20037;-75
2022/09/15 01:21:42;;;;;;;23.20;11.77;;;;;;;13.66;79.07;98429.00;4852841;29;20056;-77
2022/09/15 01:24:26;;;;;;;20.75;11.88;;;;;;;13.58;78.06;98430.22;4854142;29;20120;-75
2022/09/15 01:27:14;;;;;;;18.80;10.68;;;;;;;13.46;78.72;98427.22;4851832;29;20049;-76
2022/09/15 01:29:46;;;;;;;16.80;10.50;;;;;;;13.32;78.16;98430.38;4851780;29;20132;-76
2022/09/15 01:35:23;;;;;;;14.63;9.88;;;;;;;13.35;78.66;98424.22;4851370;29;19975;-75
2022/09/15 01:38:10;;;;;;;13.23;9.60;;;;;;;13.43;78.94;98421.28;4850484;29;20112;-76
2022/09/15 01:40:47;;;;;;;15.23;9.30;;;;;;;13.38;78.59;98410.97;4849676;29;20058;-78
2022/09/15 01:43:15;;;;;;;25.80;12.75;;;;;;;13.42;78.32;98420.44;4851750;29;20034;-76
2022/09/15 01:45:45;;;;;;;25.95;12.00;;;;;;;13.37;78.11;98430.19;4849866;29;20049;-76
2022/09/15 01:48:12;;;;;;;25.23;11.02;;;;;;;13.31;78.22;98422.63;4867113;29;20140;-78
2022/09/15 01:50:45;;;;;;;27.05;13.38;;;;;;;13.24;78.13;98425.50;4854375;29;20045;-76
2022/09/15 01:53:16;;;;;;;23.15;13.30;;;;;;;13.15;78.09;98418.03;4852240;29;20046;-76
2022/09/15 01:56:07;;;;;;;21.02;12.40;;;;;;;13.11;77.90;98421.69;4850727;29;20046;-76
2022/09/15 01:58:34;;;;;;;16.25;9.35;;;;;;;13.08;77.74;98422.66;4861534;29;20045;-76
2022/09/15 02:01:07;;;;;;;13.27;7.45;;;;;;;13.03;77.36;98431.59;4865238;29;20449;-75
2022/09/15 02:03:49;;;;;;;12.85;7.30;;;;;;;12.86;77.60;98420.09;4839450;29;20053;-75
2022/09/15 02:06:52;;;;;;;12.80;6.85;;;;;;;12.86;77.54;98429.66;4867472;29;20045;-76
2022/09/15 02:09:28;;;;;;;12.88;7.30;;;;;;;12.83;77.49;98427.16;4848434;29;20057;-75
2022/09/15 02:12:22;;;;;;;10.45;6.38;;;;;;;12.80;77.06;98435.97;4853301;29;20502;-75
2022/09/15 02:15:02;;;;;;;9.30;5.50;;;;;;;12.72;77.04;98435.44;4853559;29;20422;-75
2022/09/15 02:17:34;;;;;;;11.20;5.75;;;;;;;12.70;77.09;98432.88;4850287;29;20041;-77
2022/09/15 02:20:14;;;;;;;12.60;7.28;;;;;;;12.58;77.24;98417.72;4853423;29;20494;-77
2022/09/15 02:22:47;;;;;;;14.73;8.13;;;;;;;12.64;76.96;98428.78;4849337;29;20198;-76
2022/09/15 02:25:25;;;;;;;11.48;6.72;;;;;;;12.67;77.05;98433.00;4851662;29;20053;-75
2022/09/15 02:27:55;;;;;;;12.90;7.07;;;;;;;12.64;77.04;98422.69;4850948;29;20049;-77
2022/09/15 02:30:21;;;;;;;16.42;8.07;;;;;;;12.64;76.89;98426.16;4820199;29;20041;-76
2022/09/15 02:32:55;;;;;;;14.30;7.90;;;;;;;12.61;76.87;98422.78;4851725;29;20050;-76
2022/09/15 02:35:25;;;;;;;17.65;8.15;;;;;;;12.61;76.76;98425.41;4850632;29;20137;-78
2022/09/15 02:37:55;;;;;;;15.23;8.05;;;;;;;12.57;76.89;98421.25;4866060;29;20050;-77
2022/09/15 02:40:22;;;;;;;17.73;9.52;;;;;;;12.52;76.97;98424.00;4847613;29;20061;-76
2022/09/15 02:42:57;;;;;;;17.45;9.30;;;;;;;12.52;76.58;98424.00;4836032;29;20052;-76
2022/09/15 02:45:25;;;;;;;11.32;7.30;;;;;;;12.52;76.80;98425.78;4850965;29;20080;-78
2022/09/15 02:47:51;;;;;;;12.98;7.57;;;;;;;12.46;76.73;98430.31;4866303;29;20038;-76
2022/09/15 02:50:19;;;;;;;8.75;5.90;;;;;;;12.44;76.67;98431.31;4859958;29;20069;-77
2022/09/15 02:52:45;;;;;;;12.05;6.53;;;;;;;12.40;76.75;98430.56;4854011;29;20072;-80
2022/09/15 02:55:11;;;;;;;10.75;6.68;;;;;;;12.39;76.64;98428.84;4853938;29;20049;-77
2022/09/15 02:57:38;;;;;;;11.95;7.57;;;;;;;12.39;76.49;98428.00;4837020;29;20104;-75
2022/09/15 03:00:16;;;;;;;12.65;6.38;;;;;;;12.33;76.59;98427.31;4867350;29;20064;-77
2022/09/15 03:02:44;;;;;;;12.75;6.78;;;;;;;12.32;76.50;98436.06;4864578;29;20247;-75
2022/09/15 03:05:12;;;;;;;14.10;6.60;;;;;;;12.31;76.89;98433.53;4852299;29;20057;-76
2022/09/15 03:07:39;;;;;;;15.88;7.88;;;;;;;12.29;76.91;98438.78;4856972;29;20053;-76
2022/09/15 03:10:06;;;;;;;20.63;9.05;;;;;;;12.25;76.97;98431.97;4841916;29;20524;-75
2022/09/15 03:12:44;;;;;;;30.40;10.90;;;;;;;12.30;76.68;98444.88;4855545;29;20144;-74
2022/09/15 03:15:13;;;;;;;21.70;8.65;;;;;;;12.30;76.92;98443.09;4859606;29;20046;-75
2022/09/15 03:17:41;;;;;;;18.45;6.95;;;;;;;12.25;76.83;98429.38;4859484;29;20160;-75
2022/09/15 03:20:09;;;;;;;18.23;6.53;;;;;;;12.28;77.10;98436.25;4844908;29;20518;-76
2022/09/15 03:22:35;;;;;;;15.57;5.20;;;;;;;12.22;77.10;98441.69;4849867;29;20041;-77
2022/09/15 03:25:04;;;;;;;10.27;4.82;;;;;;;12.13;76.90;98441.13;4849497;29;20144;-76
2022/09/15 03:27:31;;;;;;;9.73;4.43;;;;;;;12.11;77.00;98439.47;4853743;29;20045;-75
2022/09/15 03:29:57;;;;;;;7.43;3.58;;;;;;;12.07;76.83;98437.88;4848221;29;20038;-77
2022/09/15 03:32:23;;;;;;;4.38;3.20;;;;;;;12.00;77.21;98430.31;4852692;29;20060;-75
2022/09/15 03:34:49;;;;;;;5.50;3.42;;;;;;;12.03;76.99;98437.97;4866269;29;20098;-78
2022/09/15 03:37:15;;;;;;;4.97;3.22;;;;;;;11.90;77.09;98434.09;4850729;29;20057;-76
2022/09/15 03:39:41;;;;;;;5.13;3.40;;;;;;;11.86;77.29;98430.78;4863593;29;20068;-77
2022/09/15 03:42:07;;;;;;;6.97;3.53;;;;;;;11.87;77.39;98442.03;4850128;29;20136;-80
2022/09/15 03:44:34;;;;;;;4.30;3.45;;;;;;;11.88;77.70;98449.81;4851634;29;20065;-77
2022/09/15 03:47:02;;;;;;;5.00;3.58;;;;;;;11.88;77.80;98443.72;4852661;29;20045;-77
2022/09/15 03:49:28;;;;;;;6.38;3.60;;;;;;;11.90;77.63;98441.91;4848961;29;20114;-77
2022/09/15 03:51:55;;;;;;;5.05;4.05;;;;;;;11.87;77.84;98429.88;4850735;29;20140;-77
2022/09/15 03:54:20;;;;;;;4.43;3.80;;;;;;;11.98;77.50;98439.03;4849342;29;20045;-77
2022/09/15 03:56:47;;;;;;;9.80;4.68;;;;;;;11.93;77.61;98436.59;4849960;29;20052;-77
2022/09/15 03:59:17;;;;;;;7.00;3.88;;;;;;;11.94;77.93;98437.44;4865635;29;20096;-79
2022/09/15 04:01:44;;;;;;;6.07;3.38;;;;;;;11.90;77.38;98434.09;4865859;29;20540;-76
2022/09/15 04:04:11;;;;;;;10.88;4.80;;;;;;;11.93;77.86;98434.00;4850140;29;20072;-76
2022/09/15 04:06:38;;;;;;;9.88;4.80;;;;;;;11.93;77.75;98431.38;4873312;29;20506;-77
2022/09/15 04:09:04;;;;;;;10.10;5.35;;;;;;;12.00;77.90;98438.13;4851332;29;20121;-78
2022/09/15 04:11:31;;;;;;;9.85;5.63;;;;;;;12.05;77.92;98436.19;4864650;29;20402;-77
2022/09/15 04:13:57;;;;;;;11.18;5.32;;;;;;;12.08;77.87;98429.16;4849278;29;20052;-76
2022/09/15 04:16:26;;;;;;;11.15;5.70;;;;;;;12.14;77.87;98448.03;4851962;29;20391;-78
2022/09/15 04:18:54;;;;;;;13.00;6.30;;;;;;;12.15;78.01;98451.50;4864107;29;21305;-80
2022/09/15 04:21:25;;;;;;;14.93;7.22;;;;;;;12.17;78.05;98449.69;4850530;29;20109;-78
2022/09/15 04:23:52;;;;;;;11.70;5.90;;;;;;;12.12;78.07;98433.34;4848443;29;20074;-78
2022/09/15 04:26:37;;;;;;;12.75;5.70;;;;;;;12.22;78.21;98449.50;4849636;29;20045;-79
2022/09/15 04:29:09;;;;;;;13.13;6.60;;;;;;;12.16;78.09;98433.16;4849157;29;20554;-80
2022/09/15 04:31:36;;;;;;;12.73;5.82;;;;;;;12.12;77.99;98436.81;4860138;29;20046;-81
2022/09/15 04:34:02;;;;;;;13.18;5.00;;;;;;;12.11;77.98;98452.50;4858402;29;20084;-80
2022/09/15 04:36:28;;;;;;;12.90;6.20;;;;;;;12.10;77.86;98445.59;4858185;29;20093;-80
2022/09/15 04:38:56;;;;;;;10.15;6.13;;;;;;;12.10;77.96;98443.84;4859531;29;20105;-77
2022/09/15 04:41:22;;;;;;;9.10;3.65;;;;;;;12.03;77.85;98435.38;4856257;29;20101;-79
2022/09/15 04:43:49;;;;;;;4.70;3.53;;;;;;;12.12;77.83;98449.00;4824842;29;20145;-81
2022/09/15 04:46:15;;;;;;;7.25;5.22;;;;;;;12.05;78.07;98433.56;4856036;29;20080;-82
2022/09/15 04:48:42;;;;;;;7.32;3.38;;;;;;;12.07;77.80;98432.66;4840377;29;20098;-80
2022/09/15 04:51:14;;;;;;;7.18;3.38;;;;;;;12.14;78.16;98439.38;4854409;29;20094;-79
2022/09/15 04:53:44;;;;;;;7.53;4.22;;;;;;;12.16;77.84;98442.75;4873586;29;20056;-79
2022/09/15 04:56:17;;;;;;;11.77;5.10;;;;;;;12.09;77.83;98423.91;4859502;29;20050;-77
2022/09/15 04:58:53;;;;;;;14.90;5.90;;;;;;;12.18;77.88;98433.13;4860248;29;20045;-80
2022/09/15 05:01:28;;;;;;;14.43;7.72;;;;;;;12.25;77.72;98442.41;4857357;29;20056;-78
2022/09/15 05:03:54;;;;;;;14.00;8.10;;;;;;;12.00;77.70;98411.19;4862585;29;20057;-81
2022/09/15 05:06:25;;;;;;;14.93;8.75;;;;;;;12.08;77.54;98434.38;4856598;29;20049;-84
2022/09/15 05:08:54;;;;;;;17.20;8.93;;;;;;;12.26;77.65;98451.09;4875674;29;20447;-78
2022/09/15 05:11:21;;;;;;;16.25;8.98;;;;;;;12.30;77.72;98448.31;4856528;29;20045;-80
2022/09/15 05:13:47;;;;;;;12.20;6.40;;;;;;;12.19;77.31;98440.06;4858396;29;20186;-81
2022/09/15 05:16:20;;;;;;;11.27;7.05;;;;;;;12.28;77.59;98447.50;4861732;29;20060;-81
2022/09/15 05:18:49;;;;;;;12.30;6.85;;;;;;;12.13;77.17;98428.09;4858721;29;20046;-81
2022/09/15 05:21:17;;;;;;;19.52;9.23;;;;;;;12.25;77.30;98449.41;4858758;29;20408;-79
2022/09/15 05:23:45;;;;;;;20.27;10.57;;;;;;;12.24;77.10;98447.69;4844210;29;20135;-78
2022/09/15 05:26:16;;;;;;;15.95;9.48;;;;;;;12.11;77.04;98436.88;4839910;29;20050;-81
2022/09/15 05:28:44;;;;;;;20.38;10.32;;;;;;;12.10;77.17;98442.97;4823915;29;20544;-81
2022/09/15 05:31:25;;;;;;;19.52;9.05;;;;;;;12.12;76.82;98449.00;4835438;29;20053;-81
2022/09/15 05:33:53;;;;;;;23.23;10.57;;;;;;;12.07;77.29;98448.31;4855896;29;20042;-81
2022/09/15 05:36:23;;;;;;;19.00;9.40;;;;;;;12.08;77.36;98440.44;4855728;29;20041;-80
2022/09/15 05:38:51;;;;;;;11.93;7.80;;;;;;;12.12;77.29;98435.97;4861333;29;21068;-80
2022/09/15 05:41:18;;;;;;;10.65;6.28;;;;;;;12.11;77.24;98444.69;4842474;29;20053;-79
2022/09/15 05:43:46;;;;;;;7.45;4.90;;;;;;;12.13;77.24;98453.31;4845698;29;20441;-78
2022/09/15 05:46:13;;;;;;;8.70;4.95;;;;;;;12.00;77.21;98432.91;4876122;29;20053;-79
2022/09/15 05:48:40;;;;;;;8.65;5.10;;;;;;;11.98;77.24;98434.69;4841430;29;20874;-80
2022/09/15 05:51:06;;;;;;;11.30;6.25;;;;;;;12.11;77.31;98449.91;4872868;29;20045;-80
2022/09/15 05:53:34;;;;;;;12.73;7.05;;;;;;;12.10;76.91;98458.63;4860939;29;20090;-81
2022/09/15 05:56:03;;;;;;;10.23;6.20;;;;;;;11.98;77.41;98437.28;4866019;29;20045;-77
2022/09/15 05:58:29;;;;;;;10.32;6.43;;;;;;;12.14;77.39;98455.00;4863171;29;20037;-79
2022/09/15 06:00:56;;;;;;;9.98;6.85;;;;;;;12.16;77.17;98453.19;4856468;29;20046;-81
2022/09/15 06:03:27;;;;;;;10.50;6.05;;;;;;;12.16;77.37;98442.75;4843932;29;20082;-83
2022/09/15 06:05:59;;;;;;;9.18;5.75;;;;;;;12.26;77.27;98458.91;4851816;29;20488;-79
2022/09/15 06:08:44;;;;;;;8.35;5.65;;;;;;;12.16;77.35;98434.94;4864956;29;20105;-79
2022/09/15 06:11:16;;;;;;;5.60;4.13;;;;;;;12.27;77.16;98456.25;4861801;29;20130;-83
2022/09/15 06:13:42;;;;;;;4.43;3.47;;;;;;;12.25;77.08;98452.84;4862442;29;20057;-77
2022/09/15 06:16:11;;;;;;;4.68;3.03;;;;;;;12.31;77.09;98467.44;4860895;29;20417;-83
2022/09/15 06:18:45;;;;;;;5.65;2.97;;;;;;;12.24;76.99;98453.78;4862130;29;20477;-81
2022/09/15 06:21:19;;;;;;;4.05;2.97;;;;;;;12.27;77.05;98453.63;4858997;29;20045;-81
2022/09/15 06:23:50;;;;;;;4.68;3.25;;;;;;;12.40;76.70;98468.84;4862021;29;20535;-80
2022/09/15 06:26:18;;;;;;;6.28;4.40;;;;;;;12.41;77.15;98460.94;4860507;29;20037;-79
2022/09/15 06:28:51;;;;;;;4.90;4.25;;;;;;;12.41;76.79;98460.94;4862020;29;20046;-80
2022/09/15 06:31:18;;;;;;;4.40;3.08;;;;;;;12.49;76.68;98460.66;4844218;29;20174;-81
2022/09/15 06:33:49;;;;;;;3.38;2.90;;;;;;;12.54;76.53;98477.00;4828485;29;20045;-82
2022/09/15 06:36:16;;;;;;;;;;;;;;;12.58;76.59;98472.53;4858582;29;20072;-79
2022/09/15 06:38:43;;;;;;;3.75;2.80;;;;;;;12.56;76.46;98467.34;4841368;29;19976;-79
2022/09/15 06:41:12;;;;;;;5.57;2.60;;;;;;;12.64;76.19;98478.34;4838302;29;20391;-83
2022/09/15 06:43:41;;;;;;;5.40;3.45;;;;;;;12.67;76.29;98473.94;4861375;29;20043;-81
2022/09/15 06:46:16;;;;;;;4.85;3.40;;;;;;;12.71;76.33;98475.47;4874955;29;20507;-80
2022/09/15 06:48:42;;;;;;;4.22;2.95;;;;;;;12.75;75.99;98475.31;4860144;29;20042;-78
2022/09/15 06:51:10;;;;;;;3.58;2.50;;;;;;;12.79;76.51;98484.75;4858734;29;20498;-79
2022/09/15 06:53:37;;;;;;;3.53;2.50;;;;;;;12.80;75.68;98475.97;4859589;29;20072;-78
2022/09/15 06:56:10;;;;;;;3.85;2.55;;;;;;;12.79;75.92;98476.91;4842198;29;20048;-79
2022/09/15 06:58:38;;;;;;;5.75;2.75;;;;;;;12.89;75.95;98484.38;4836134;29;20061;-80
2022/09/15 07:01:10;;;;;;;4.05;2.78;;;;;;;12.87;75.89;98470.53;4850739;29;20518;-82
2022/09/15 07:03:38;;;;;;;4.05;2.90;;;;;;;12.98;75.50;98477.94;4851213;29;20033;-79
2022/09/15 07:06:05;;;;;;;3.08;2.72;;;;;;;13.03;75.54;98478.59;4850370;29;20037;-80
2022/09/15 07:08:31;;;;;;;4.70;2.70;;;;;;;13.15;75.29;98485.09;4853187;29;20041;-80
2022/09/15 07:10:57;;;;;;;3.03;2.30;;;;;;;13.20;75.22;98477.94;4865388;29;20041;-79
2022/09/15 07:13:24;;;;;;;2.95;2.40;;;;;;;13.30;74.91;98487.06;4840394;29;20109;-80
2022/09/15 07:15:55;;;;;;;3.53;2.53;;;;;;;13.36;74.91;98491.19;4852796;29;20042;-79
2022/09/15 07:18:23;;;;;;;5.97;2.42;;;;;;;13.44;74.76;98485.69;4855795;29;20135;-82
2022/09/15 07:20:50;;;;;;;2.08;1.88;;;;;;;13.41;74.47;98470.97;4856122;29;20041;-80
2022/09/15 07:23:17;;;;;;;2.90;1.90;;;;;;;13.58;74.40;98492.94;4868180;29;20045;-80
2022/09/15 07:25:43;;;;;;;3.75;2.25;;;;;;;13.62;74.14;98484.06;4855806;29;20042;-80
2022/09/15 07:28:11;;;;;;;3.38;2.15;;;;;;;13.70;73.83;98493.28;4870647;29;20054;-76
2022/09/15 07:30:38;;;;;;;5.13;2.70;;;;;;;13.69;73.65;98490.75;4865142;29;20440;-77
2022/09/15 07:33:09;;;;;;;3.83;2.75;;;;;;;13.77;73.44;98493.03;4837095;29;20082;-79
2022/09/15 07:35:41;;;;;;;5.10;2.47;;;;;;;13.78;73.57;98492.97;4852404;29;20076;-79
2022/09/15 07:38:07;;;;;;;3.20;2.33;;;;;;;13.83;73.42;98479.69;4849964;29;20135;-79
2022/09/15 07:40:33;;;;;;;4.97;2.20;;;;;;;13.94;73.00;98480.06;4850484;29;20093;-78
2022/09/15 07:42:59;;;;;;;3.50;2.00;;;;;;;14.03;72.77;98498.91;4866306;29;20042;-80
2022/09/15 07:45:25;;;;;;;3.30;2.22;;;;;;;14.06;72.94;98486.53;4849305;29;20623;-79
2022/09/15 07:47:51;;;;;;;4.57;2.35;;;;;;;14.04;72.51;98503.22;4850711;29;20177;-80
2022/09/15 07:50:17;;;;;;;3.13;2.50;;;;;;;14.01;72.20;98496.34;4853590;29;20105;-80
2022/09/15 07:52:45;;;;;;;2.13;1.90;;;;;;;14.01;71.95;98502.41;4854784;29;20502;-80
2022/09/15 07:55:11;;;;;;;2.83;2.10;;;;;;;14.04;71.57;98511.06;4848900;29;20082;-80
2022/09/15 07:57:37;;;;;;;3.70;1.95;;;;;;;13.95;71.76;98499.22;4865234;29;20045;-80
2022/09/15 08:00:04;;;;;;;4.07;2.10;;;;;;;13.94;71.46;98506.22;4863415;29;20050;-81
2022/09/15 08:02:38;;;;;;;5.07;2.28;;;;;;;13.81;71.58;98497.22;4852463;29;20046;-79
2022/09/15 08:05:05;;;;;;;3.17;2.17;;;;;;;13.76;71.36;98502.66;4851912;29;20225;-79
2022/09/15 08:07:31;;;;;;;12.55;2.47;;;;;;;13.74;71.42;98511.44;4843093;29;20056;-79
2022/09/15 08:09:57;;;;;;;5.07;2.00;;;;;;;13.67;71.28;98500.41;4850124;29;20109;-78
2022/09/15 08:12:23;;;;;;;4.25;1.80;;;;;;;13.58;71.19;98506.88;4847951;29;20046;-79
2022/09/15 08:14:49;;;;;;;4.72;2.10;;;;;;;13.55;71.30;98517.44;4848506;29;20045;-78
2022/09/15 08:17:15;;;;;;;2.40;1.90;;;;;;;13.54;71.46;98511.38;4850673;29;20045;-80
2022/09/15 08:19:41;;;;;;;3.33;2.10;;;;;;;13.48;71.52;98495.97;4850085;29;20038;-81
2022/09/15 08:22:07;;;;;;;3.30;1.90;;;;;;;13.59;71.27;98507.72;4847814;29;20041;-80
2022/09/15 08:24:33;;;;;;;3.38;1.88;;;;;;;13.57;71.14;98507.78;4850385;29;20060;-78
2022/09/15 08:27:00;;;;;;;5.82;2.10;;;;;;;13.55;71.35;98510.47;4850430;29;20537;-78
2022/09/15 08:29:26;;;;;;;2.40;1.92;;;;;;;13.55;71.45;98515.69;4851761;29;20045;-80
2022/09/15 08:31:52;;;;;;;3.92;2.15;;;;;;;13.56;71.39;98506.09;4833881;29;20447;-80
2022/09/15 08:34:17;;;;;;;4.65;2.25;;;;;;;13.63;71.33;98514.50;4849648;29;20136;-79
2022/09/15 08:36:43;;;;;;;3.33;1.90;;;;;;;13.72;71.47;98516.75;4864837;29;20201;-79
2022/09/15 08:39:12;;;;;;;5.32;2.60;;;;;;;13.70;71.36;98492.44;4853953;29;20550;-79
2022/09/15 08:41:48;;;;;;;9.45;2.83;;;;;;;13.78;71.15;98507.78;4854392;29;20077;-81
2022/09/15 08:44:36;;;;;;;2.92;2.42;;;;;;;13.79;70.80;98515.56;4841815;29;20455;-80
2022/09/15 08:47:32;;;;;;;4.03;2.45;;;;;;;13.76;71.06;98510.47;4861684;29;20108;-79
2022/09/15 08:50:34;;;;;;;4.50;2.55;;;;;;;13.79;70.93;98514.72;4851466;29;20087;-77
2022/09/15 08:53:25;;;;;;;5.18;2.13;;;;;;;13.75;71.09;98500.06;4852971;29;20049;-83
2022/09/15 08:56:17;;;;;;;6.82;2.33;;;;;;;13.63;71.07;98467.47;4851141;29;20102;-82
2022/09/15 08:58:47;;;;;;;3.25;2.25;;;;;;;13.82;70.74;98493.69;4856701;29;20041;-83
2022/09/15 09:01:46;;;;;;;3.25;1.80;;;;;;;13.96;70.29;98520.06;4870232;29;20038;-81
2022/09/15 09:04:42;;;;;;;5.47;2.10;;;;;;;13.82;70.31;98518.03;4864714;29;20068;-77
2022/09/15 09:07:53;;;;;;;4.22;2.63;;;;;;;13.66;70.27;98511.78;4862194;29;20069;-83
2022/09/15 09:10:37;;;;;;;5.32;2.30;;;;;;;13.66;70.28;98530.06;4873478;29;20101;-79
2022/09/15 09:13:37;;;;;;;4.35;2.40;;;;;;;13.70;70.78;98529.88;4853705;29;20086;-79
2022/09/15 09:16:42;;;;;;;2.83;2.20;;;;;;;13.72;70.53;98532.44;4854524;29;20049;-80
2022/09/15 09:19:40;;;;;;;5.50;2.17;;;;;;;13.81;70.71;98537.25;4826152;29;20513;-82
2022/09/15 09:22:14;;;;;;;3.42;2.13;;;;;;;13.86;70.46;98537.91;4844943;29;20084;-82
2022/09/15 09:24:46;;;;;;;2.85;2.08;;;;;;;13.78;70.30;98524.34;4854322;29;20101;-78
2022/09/15 09:27:17;;;;;;;2.80;2.17;;;;;;;13.79;70.21;98531.25;4866922;29;20056;-78
2022/09/15 09:29:48;;;;;;;2.75;2.05;;;;;;;13.75;70.16;98540.16;4853613;29;20046;-84
2022/09/15 09:32:39;;;;;;;;;;;;;;;13.68;69.88;98541.31;4836670;29;20148;-78
2022/09/15 09:35:33;;;;;;;4.35;2.80;;;;;;;13.55;70.14;98549.69;4850475;29;19952;-82
2022/09/15 09:38:01;;;;;;;12.85;4.20;;;;;;;13.44;70.31;98549.25;4853377;29;20049;-83
2022/09/15 09:40:31;;;;;;;4.65;3.47;;;;;;;13.43;70.57;98541.50;4852787;29;20057;-80
2022/09/15 09:42:59;;;;;;;6.82;3.80;;;;;;;13.43;70.68;98544.94;4861219;29;20038;-77
2022/09/15 09:45:26;;;;;;;9.50;6.40;;;;;;;13.34;70.71;98534.84;4862226;29;20056;-76
2022/09/15 09:47:58;;;;;;;7.20;5.32;;;;;;;13.48;70.79;98550.81;4830798;29;20046;-77
2022/09/15 09:50:44;;;;;;;5.97;3.70;;;;;;;13.47;70.75;98545.66;4845024;29;20052;-76
2022/09/15 09:53:18;;;;;;;5.05;3.25;;;;;;;13.57;70.96;98551.38;4858613;29;20053;-79
2022/09/15 09:55:45;;;;;;;6.25;2.85;;;;;;;13.55;70.94;98547.06;4842553;29;20042;-77
2022/09/15 09:58:16;;;;;;;4.55;2.53;;;;;;;13.47;70.87;98528.22;4858443;29;20058;-78
2022/09/15 10:00:42;;;;;;;5.07;3.30;;;;;;;13.60;70.71;98554.72;4858192;29;20046;-76
2022/09/15 10:03:29;;;;;;;5.43;3.15;;;;;;;13.65;70.94;98551.91;4876664;29;20045;-75
2022/09/15 10:06:11;;;;;;;7.50;3.90;;;;;;;13.70;70.80;98560.41;4876691;29;20109;-78
2022/09/15 10:09:01;;;;;;;7.55;4.18;;;;;;;13.73;70.67;98554.19;4832010;29;20105;-77
2022/09/15 10:11:53;;;;;;;6.68;4.20;;;;;;;13.81;70.71;98552.94;4828337;29;20106;-77
2022/09/15 10:14:37;;;;;;;6.70;3.75;;;;;;;13.94;70.60;98558.50;4880598;29;20045;-80
2022/09/15 10:17:11;;;;;;;10.75;3.53;;;;;;;14.09;70.69;98564.84;4863197;29;20061;-77
2022/09/15 10:19:41;;;;;;;6.00;3.20;;;;;;;14.24;70.49;98554.63;4844073;29;20052;-78
2022/09/15 10:22:07;;;;;;;8.18;3.45;;;;;;;14.34;69.98;98557.72;4845097;29;20050;-77
2022/09/15 10:24:39;;;;;;;5.50;2.75;;;;;;;14.44;70.03;98559.88;4860716;29;20049;-79
2022/09/15 10:27:17;;;;;;;4.70;2.58;;;;;;;14.46;69.74;98550.16;4840396;29;20049;-78
2022/09/15 10:29:44;;;;;;;6.50;3.08;;;;;;;14.43;69.29;98560.78;4858670;29;20044;-78
2022/09/15 10:32:27;;;;;;;4.85;3.00;;;;;;;14.45;69.26;98569.38;4857228;29;20677;-79
2022/09/15 10:35:01;;;;;;;5.55;3.00;;;;;;;14.45;69.14;98572.00;4844199;29;20048;-79
2022/09/15 10:37:33;;;;;;;9.50;4.38;;;;;;;14.32;68.98;98552.53;4858024;29;20049;-79
2022/09/15 10:40:09;;;;;;;11.65;7.82;;;;;;;14.34;68.79;98560.34;4873980;29;20064;-78
2022/09/15 10:42:44;;;;;;;9.05;4.80;;;;;;;14.29;68.75;98565.75;4860181;29;20406;-78
2022/09/15 10:45:23;;;;;;;11.95;7.13;;;;;;;14.28;68.92;98572.78;4860640;29;20140;-78
2022/09/15 10:47:55;;;;;;;13.82;7.10;;;;;;;14.25;68.88;98582.50;4858538;29;20070;-79
2022/09/15 10:50:40;;;;;;;11.98;6.45;;;;;;;14.20;69.11;98579.25;4850483;29;20052;-80
2022/09/15 10:53:12;;;;;;;8.90;5.30;;;;;;;14.16;69.41;98578.50;4860351;29;20056;-77
2022/09/15 10:55:41;;;;;;;10.45;5.30;;;;;;;14.14;69.28;98565.50;4860518;29;20129;-80
2022/09/15 10:58:34;;;;;;;11.77;5.43;;;;;;;14.26;69.50;98578.97;4845090;29;20506;-77
2022/09/15 11:01:05;;;;;;;9.35;5.25;;;;;;;14.30;69.32;98585.78;4860192;29;20097;-80
2022/09/15 11:03:38;;;;;;;;;;;;;;;14.31;69.29;98580.50;4860075;29;20044;-77
2022/09/15 11:06:19;;;;;;;12.43;4.93;;;;;;;14.34;69.21;98589.97;4861372;29;19928;-79
2022/09/15 11:09:00;;;;;;;9.90;6.20;;;;;;;14.35;69.00;98591.66;4860274;29;20051;-81
2022/09/15 11:11:25;;;;;;;10.20;5.20;;;;;;;14.32;69.10;98591.78;4858170;29;20072;-78
2022/09/15 11:13:55;;;;;;;8.00;4.22;;;;;;;14.21;68.74;98594.88;4859855;29;20076;-77
2022/09/15 11:16:30;;;;;;;9.55;4.15;;;;;;;14.12;69.17;98603.13;4860285;29;20041;-79
2022/09/15 11:19:37;;;;;;;8.27;3.17;;;;;;;13.96;69.08;98598.53;4843899;29;20480;-76
2022/09/15 11:22:27;;;;;;;7.35;3.65;;;;;;;13.83;69.41;98597.34;4850119;29;20049;-77
2022/09/15 11:25:12;;;;;;;4.28;3.63;;;;;;;13.76;69.57;98599.38;4841640;29;20042;-76
2022/09/15 11:27:48;;;;;;;7.00;4.60;;;;;;;13.70;69.77;98594.38;4838260;29;20052;-79
2022/09/15 11:30:20;;;;;;;7.93;4.25;;;;;;;13.68;69.79;98604.06;4859229;29;20046;-78
2022/09/15 11:33:24;;;;;;;5.90;3.83;;;;;;;13.60;70.07;98596.53;4855968;29;20057;-78
2022/09/15 11:36:13;;;;;;;6.65;4.00;;;;;;;13.60;69.91;98608.72;4842046;29;20050;-77
2022/09/15 11:39:18;;;;;;;8.65;4.22;;;;;;;13.55;70.05;98609.78;4816061;29;20084;-78
2022/09/15 11:41:55;;;;;;;6.43;4.30;;;;;;;13.52;69.98;98616.88;4840160;29;20151;-78
2022/09/15 11:44:43;;;;;;;9.07;4.22;;;;;;;13.32;70.24;98594.13;4845750;29;20095;-78
2022/09/15 11:47:24;;;;;;;9.65;4.97;;;;;;;13.39;70.13;98619.97;4874516;29;20518;-79
2022/09/15 11:50:00;;;;;;;9.85;5.93;;;;;;;13.34;69.95;98621.06;4857298;29;20045;-81
2022/09/15 11:53:01;;;;;;;10.82;5.93;;;;;;;13.35;70.28;98620.16;4872095;29;20048;-81
2022/09/15 11:55:39;;;;;;;13.10;5.00;;;;;;;13.37;70.27;98616.53;4844044;29;20498;-77
2022/09/15 11:58:12;;;;;;;6.97;4.70;;;;;;;13.39;70.24;98621.69;4860496;29;20037;-79